sensor_id;sensor_type;location;lat;lon;timestamp;P1;durP1;ratioP1;P2;durP2;ratioP2
66189;SDS011;52992;52.084;5.412;2022-12-10T00:01:14;64.30;;;24.67;;
66189;SDS011;52992;52.084;5.412;2022-12-10T00:03:43;68.67;;;24.67;;
66189;SDS011;52992;52.084;5.412;2022-12-10T00:06:12;73.60;;;24.90;;
66189;SDS011;52992;52.084;5.412;2022-12-10T00:08:40;58.40;;;25.13;;
66189;SDS011;52992;52.084;5.412;2022-12-10T00:11:09;59.93;;;23.77;;
66189;SDS011;52992;52.084;5.412;2022-12-10T00:13:37;55.53;;;23.20;;
66189;SDS011;52992;52.084;5.412;2022-12-10T00:16:06;54.27;;;23.23;;
66189;SDS011;52992;52.084;5.412;2022-12-10T00:18:34;57.03;;;23.40;;
66189;SDS011;52992;52.084;5.412;2022-12-10T00:21:02;54.00;;;24.20;;
66189;SDS011;52992;52.084;5.412;2022-12-10T00:23:32;55.40;;;23.53;;
66189;SDS011;52992;52.084;5.412;2022-12-10T00:26:03;58.43;;;22.97;;
66189;SDS011;52992;52.084;5.412;2022-12-10T00:28:39;65.17;;;24.73;;
66189;SDS011;52992;52.084;5.412;2022-12-10T00:31:14;60.33;;;23.17;;
66189;SDS011;52992;52.084;5.412;2022-12-10T00:33:43;62.50;;;25.07;;
66189;SDS011;52992;52.084;5.412;2022-12-10T00:36:11;66.33;;;26.10;;
66189;SDS011;52992;52.084;5.412;2022-12-10T00:38:40;68.00;;;25.10;;
66189;SDS011;52992;52.084;5.412;2022-12-10T00:41:09;66.13;;;25.70;;
66189;SDS011;52992;52.084;5.412;2022-12-10T00:43:37;74.00;;;26.23;;
66189;SDS011;52992;52.084;5.412;2022-12-10T00:46:04;61.97;;;24.90;;
66189;SDS011;52992;52.084;5.412;2022-12-10T00:48:32;72.10;;;24.90;;
66189;SDS011;52992;52.084;5.412;2022-12-10T00:53:34;62.30;;;25.50;;
66189;SDS011;52992;52.084;5.412;2022-12-10T00:56:05;63.63;;;24.90;;
66189;SDS011;52992;52.084;5.412;2022-12-10T00:58:33;66.00;;;25.33;;
66189;SDS011;52992;52.084;5.412;2022-12-10T01:01:12;68.33;;;26.37;;
66189;SDS011;52992;52.084;5.412;2022-12-10T01:03:43;74.23;;;25.97;;
66189;SDS011;52992;52.084;5.412;2022-12-10T01:06:13;77.97;;;26.60;;
66189;SDS011;52992;52.084;5.412;2022-12-10T01:08:58;71.83;;;25.50;;
66189;SDS011;52992;52.084;5.412;2022-12-10T01:11:32;72.73;;;26.77;;
66189;SDS011;52992;52.084;5.412;2022-12-10T01:14:01;63.13;;;25.67;;
66189;SDS011;52992;52.084;5.412;2022-12-10T01:16:27;65.37;;;25.00;;
66189;SDS011;52992;52.084;5.412;2022-12-10T01:18:55;67.70;;;25.63;;
66189;SDS011;52992;52.084;5.412;2022-12-10T01:21:24;65.60;;;25.47;;
66189;SDS011;52992;52.084;5.412;2022-12-10T01:23:52;69.20;;;24.90;;
66189;SDS011;52992;52.084;5.412;2022-12-10T01:26:22;72.93;;;27.77;;
66189;SDS011;52992;52.084;5.412;2022-12-10T01:28:51;62.83;;;25.03;;
66189;SDS011;52992;52.084;5.412;2022-12-10T01:31:20;66.83;;;25.30;;
66189;SDS011;52992;52.084;5.412;2022-12-10T01:33:49;63.80;;;24.83;;
66189;SDS011;52992;52.084;5.412;2022-12-10T01:36:18;74.47;;;26.80;;
66189;SDS011;52992;52.084;5.412;2022-12-10T01:38:47;66.50;;;24.93;;
66189;SDS011;52992;52.084;5.412;2022-12-10T01:41:19;72.53;;;28.07;;
66189;SDS011;52992;52.084;5.412;2022-12-10T01:46:32;66.63;;;26.40;;
66189;SDS011;52992;52.084;5.412;2022-12-10T01:49:02;70.00;;;26.87;;
66189;SDS011;52992;52.084;5.412;2022-12-10T01:51:32;66.73;;;24.97;;
66189;SDS011;52992;52.084;5.412;2022-12-10T01:54:02;71.23;;;25.73;;
66189;SDS011;52992;52.084;5.412;2022-12-10T01:56:31;59.70;;;24.17;;
66189;SDS011;52992;52.084;5.412;2022-12-10T01:59:03;66.87;;;24.43;;
66189;SDS011;52992;52.084;5.412;2022-12-10T02:01:32;71.30;;;25.83;;
66189;SDS011;52992;52.084;5.412;2022-12-10T02:04:22;69.30;;;27.30;;
66189;SDS011;52992;52.084;5.412;2022-12-10T02:13:45;70.80;;;24.20;;
66189;SDS011;52992;52.084;5.412;2022-12-10T02:16:08;71.73;;;24.80;;
66189;SDS011;52992;52.084;5.412;2022-12-10T02:18:51;62.30;;;25.07;;
66189;SDS011;52992;52.084;5.412;2022-12-10T02:21:38;68.37;;;23.73;;
66189;SDS011;52992;52.084;5.412;2022-12-10T02:24:11;70.20;;;26.43;;
66189;SDS011;52992;52.084;5.412;2022-12-10T02:29:28;71.97;;;24.60;;
66189;SDS011;52992;52.084;5.412;2022-12-10T02:32:00;80.13;;;26.13;;
66189;SDS011;52992;52.084;5.412;2022-12-10T02:34:37;68.47;;;24.40;;
66189;SDS011;52992;52.084;5.412;2022-12-10T02:37:14;70.73;;;26.43;;
66189;SDS011;52992;52.084;5.412;2022-12-10T02:40:05;76.97;;;24.80;;
66189;SDS011;52992;52.084;5.412;2022-12-10T02:42:42;66.83;;;23.70;;
66189;SDS011;52992;52.084;5.412;2022-12-10T02:45:11;64.53;;;24.17;;
66189;SDS011;52992;52.084;5.412;2022-12-10T02:47:39;75.80;;;24.13;;
66189;SDS011;52992;52.084;5.412;2022-12-10T02:50:08;69.17;;;24.60;;
66189;SDS011;52992;52.084;5.412;2022-12-10T02:52:37;71.57;;;24.00;;
66189;SDS011;52992;52.084;5.412;2022-12-10T02:55:04;77.83;;;24.70;;
66189;SDS011;52992;52.084;5.412;2022-12-10T02:57:45;74.50;;;25.13;;
66189;SDS011;52992;52.084;5.412;2022-12-10T03:00:21;78.23;;;26.27;;
66189;SDS011;52992;52.084;5.412;2022-12-10T03:03:10;72.73;;;26.43;;
66189;SDS011;52992;52.084;5.412;2022-12-10T03:08:18;72.23;;;26.33;;
66189;SDS011;52992;52.084;5.412;2022-12-10T03:13:31;77.33;;;25.30;;
66189;SDS011;52992;52.084;5.412;2022-12-10T03:16:02;78.03;;;27.70;;
66189;SDS011;52992;52.084;5.412;2022-12-10T03:18:31;82.20;;;26.30;;
66189;SDS011;52992;52.084;5.412;2022-12-10T03:21:02;82.37;;;27.20;;
66189;SDS011;52992;52.084;5.412;2022-12-10T03:23:32;84.37;;;27.10;;
66189;SDS011;52992;52.084;5.412;2022-12-10T03:26:02;80.57;;;26.50;;
66189;SDS011;52992;52.084;5.412;2022-12-10T03:28:31;80.33;;;25.93;;
66189;SDS011;52992;52.084;5.412;2022-12-10T03:31:02;72.83;;;26.30;;
66189;SDS011;52992;52.084;5.412;2022-12-10T03:33:29;72.63;;;25.10;;
66189;SDS011;52992;52.084;5.412;2022-12-10T03:35:57;62.27;;;22.53;;
66189;SDS011;52992;52.084;5.412;2022-12-10T03:38:24;72.83;;;23.80;;
66189;SDS011;52992;52.084;5.412;2022-12-10T03:40:51;64.83;;;22.43;;
66189;SDS011;52992;52.084;5.412;2022-12-10T03:43:18;66.67;;;22.23;;
66189;SDS011;52992;52.084;5.412;2022-12-10T03:45:46;59.30;;;21.03;;
66189;SDS011;52992;52.084;5.412;2022-12-10T03:48:13;68.30;;;21.17;;
66189;SDS011;52992;52.084;5.412;2022-12-10T03:50:40;73.90;;;21.83;;
66189;SDS011;52992;52.084;5.412;2022-12-10T03:53:07;64.30;;;22.50;;
66189;SDS011;52992;52.084;5.412;2022-12-10T03:55:34;64.73;;;23.47;;
66189;SDS011;52992;52.084;5.412;2022-12-10T03:58:00;59.63;;;21.37;;
66189;SDS011;52992;52.084;5.412;2022-12-10T04:00:27;62.03;;;20.70;;
66189;SDS011;52992;52.084;5.412;2022-12-10T04:02:54;63.43;;;22.23;;
66189;SDS011;52992;52.084;5.412;2022-12-10T04:05:21;55.77;;;20.70;;
66189;SDS011;52992;52.084;5.412;2022-12-10T04:07:47;56.97;;;21.50;;
66189;SDS011;52992;52.084;5.412;2022-12-10T04:10:14;67.30;;;22.30;;
66189;SDS011;52992;52.084;5.412;2022-12-10T04:12:41;52.50;;;19.53;;
66189;SDS011;52992;52.084;5.412;2022-12-10T04:15:09;63.07;;;20.77;;
66189;SDS011;52992;52.084;5.412;2022-12-10T04:17:54;60.60;;;21.20;;
66189;SDS011;52992;52.084;5.412;2022-12-10T04:20:21;90.23;;;23.10;;
66189;SDS011;52992;52.084;5.412;2022-12-10T04:23:07;64.43;;;22.37;;
66189;SDS011;52992;52.084;5.412;2022-12-10T04:25:53;58.47;;;21.17;;
66189;SDS011;52992;52.084;5.412;2022-12-10T04:28:58;61.53;;;22.23;;
66189;SDS011;52992;52.084;5.412;2022-12-10T04:31:24;55.93;;;20.23;;
66189;SDS011;52992;52.084;5.412;2022-12-10T04:33:51;63.97;;;21.63;;
66189;SDS011;52992;52.084;5.412;2022-12-10T04:36:18;66.10;;;24.00;;
66189;SDS011;52992;52.084;5.412;2022-12-10T04:38:45;57.20;;;21.80;;
66189;SDS011;52992;52.084;5.412;2022-12-10T04:41:11;60.67;;;22.20;;
66189;SDS011;52992;52.084;5.412;2022-12-10T04:43:41;66.83;;;22.83;;
66189;SDS011;52992;52.084;5.412;2022-12-10T04:46:09;61.67;;;22.40;;
66189;SDS011;52992;52.084;5.412;2022-12-10T04:48:36;65.73;;;23.10;;
66189;SDS011;52992;52.084;5.412;2022-12-10T04:51:03;66.13;;;22.60;;
66189;SDS011;52992;52.084;5.412;2022-12-10T04:53:29;62.37;;;21.63;;
66189;SDS011;52992;52.084;5.412;2022-12-10T04:55:56;67.10;;;22.40;;
66189;SDS011;52992;52.084;5.412;2022-12-10T04:58:23;62.93;;;22.77;;
66189;SDS011;52992;52.084;5.412;2022-12-10T05:00:50;67.70;;;23.80;;
66189;SDS011;52992;52.084;5.412;2022-12-10T05:03:17;66.80;;;23.10;;
66189;SDS011;52992;52.084;5.412;2022-12-10T05:05:43;78.40;;;24.70;;
66189;SDS011;52992;52.084;5.412;2022-12-10T05:08:10;74.47;;;24.60;;
66189;SDS011;52992;52.084;5.412;2022-12-10T05:10:37;75.67;;;24.53;;
66189;SDS011;52992;52.084;5.412;2022-12-10T05:13:04;61.63;;;24.37;;
66189;SDS011;52992;52.084;5.412;2022-12-10T05:15:31;72.90;;;25.07;;
66189;SDS011;52992;52.084;5.412;2022-12-10T05:17:58;74.83;;;23.77;;
66189;SDS011;52992;52.084;5.412;2022-12-10T05:20:25;67.50;;;22.50;;
66189;SDS011;52992;52.084;5.412;2022-12-10T05:22:51;75.50;;;23.67;;
66189;SDS011;52992;52.084;5.412;2022-12-10T05:25:37;79.53;;;25.40;;
66189;SDS011;52992;52.084;5.412;2022-12-10T05:28:21;69.23;;;24.87;;
66189;SDS011;52992;52.084;5.412;2022-12-10T05:30:48;74.17;;;24.37;;
66189;SDS011;52992;52.084;5.412;2022-12-10T05:33:15;69.50;;;24.47;;
66189;SDS011;52992;52.084;5.412;2022-12-10T05:35:42;72.50;;;25.70;;
66189;SDS011;52992;52.084;5.412;2022-12-10T05:38:09;68.93;;;23.77;;
66189;SDS011;52992;52.084;5.412;2022-12-10T05:40:36;68.33;;;23.33;;
66189;SDS011;52992;52.084;5.412;2022-12-10T05:43:03;58.17;;;21.73;;
66189;SDS011;52992;52.084;5.412;2022-12-10T05:45:33;82.37;;;24.07;;
66189;SDS011;52992;52.084;5.412;2022-12-10T05:48:00;69.90;;;22.93;;
66189;SDS011;52992;52.084;5.412;2022-12-10T05:50:27;64.07;;;22.20;;
66189;SDS011;52992;52.084;5.412;2022-12-10T05:52:53;67.30;;;21.73;;
66189;SDS011;52992;52.084;5.412;2022-12-10T05:55:20;71.73;;;24.13;;
66189;SDS011;52992;52.084;5.412;2022-12-10T05:57:47;55.43;;;20.13;;
66189;SDS011;52992;52.084;5.412;2022-12-10T06:00:14;67.37;;;21.33;;
66189;SDS011;52992;52.084;5.412;2022-12-10T06:02:41;64.10;;;22.77;;
66189;SDS011;52992;52.084;5.412;2022-12-10T06:05:08;68.60;;;23.27;;
66189;SDS011;52992;52.084;5.412;2022-12-10T06:07:35;63.90;;;21.43;;
66189;SDS011;52992;52.084;5.412;2022-12-10T06:10:02;58.23;;;21.60;;
66189;SDS011;52992;52.084;5.412;2022-12-10T06:12:29;58.40;;;20.27;;
66189;SDS011;52992;52.084;5.412;2022-12-10T06:14:58;59.17;;;21.83;;
66189;SDS011;52992;52.084;5.412;2022-12-10T06:17:24;62.60;;;21.23;;
66189;SDS011;52992;52.084;5.412;2022-12-10T06:19:51;76.43;;;24.63;;
66189;SDS011;52992;52.084;5.412;2022-12-10T06:22:18;62.20;;;22.73;;
66189;SDS011;52992;52.084;5.412;2022-12-10T06:24:45;62.83;;;21.43;;
66189;SDS011;52992;52.084;5.412;2022-12-10T06:27:11;59.37;;;20.37;;
66189;SDS011;52992;52.084;5.412;2022-12-10T06:29:38;59.50;;;21.57;;
66189;SDS011;52992;52.084;5.412;2022-12-10T06:32:05;64.47;;;22.13;;
66189;SDS011;52992;52.084;5.412;2022-12-10T06:34:32;64.07;;;23.53;;
66189;SDS011;52992;52.084;5.412;2022-12-10T06:37:01;75.70;;;22.40;;
66189;SDS011;52992;52.084;5.412;2022-12-10T06:39:28;59.33;;;21.73;;
66189;SDS011;52992;52.084;5.412;2022-12-10T06:41:55;62.70;;;21.93;;
66189;SDS011;52992;52.084;5.412;2022-12-10T06:44:24;67.60;;;23.13;;
66189;SDS011;52992;52.084;5.412;2022-12-10T06:46:51;63.00;;;22.23;;
66189;SDS011;52992;52.084;5.412;2022-12-10T06:49:18;66.60;;;23.00;;
66189;SDS011;52992;52.084;5.412;2022-12-10T06:51:45;67.20;;;22.83;;
66189;SDS011;52992;52.084;5.412;2022-12-10T06:54:14;71.17;;;22.50;;
66189;SDS011;52992;52.084;5.412;2022-12-10T06:56:40;69.23;;;22.60;;
66189;SDS011;52992;52.084;5.412;2022-12-10T06:59:07;72.50;;;23.37;;
66189;SDS011;52992;52.084;5.412;2022-12-10T07:01:34;59.97;;;21.80;;
66189;SDS011;52992;52.084;5.412;2022-12-10T07:04:01;63.63;;;22.40;;
66189;SDS011;52992;52.084;5.412;2022-12-10T07:06:28;65.63;;;22.07;;
66189;SDS011;52992;52.084;5.412;2022-12-10T07:08:57;61.90;;;23.47;;
66189;SDS011;52992;52.084;5.412;2022-12-10T07:11:24;73.40;;;24.67;;
66189;SDS011;52992;52.084;5.412;2022-12-10T07:13:51;61.30;;;22.57;;
66189;SDS011;52992;52.084;5.412;2022-12-10T07:16:22;65.80;;;22.97;;
66189;SDS011;52992;52.084;5.412;2022-12-10T07:18:52;61.37;;;21.63;;
66189;SDS011;52992;52.084;5.412;2022-12-10T07:23:59;63.17;;;20.17;;
66189;SDS011;52992;52.084;5.412;2022-12-10T07:26:29;58.10;;;20.03;;
66189;SDS011;52992;52.084;5.412;2022-12-10T07:28:58;68.03;;;23.53;;
66189;SDS011;52992;52.084;5.412;2022-12-10T07:31:26;54.60;;;20.53;;
66189;SDS011;52992;52.084;5.412;2022-12-10T07:33:54;49.80;;;20.10;;
66189;SDS011;52992;52.084;5.412;2022-12-10T07:36:23;48.37;;;17.93;;
66189;SDS011;52992;52.084;5.412;2022-12-10T07:38:50;52.47;;;18.90;;
66189;SDS011;52992;52.084;5.412;2022-12-10T07:41:18;55.57;;;20.07;;
66189;SDS011;52992;52.084;5.412;2022-12-10T07:43:46;58.40;;;20.10;;
66189;SDS011;52992;52.084;5.412;2022-12-10T07:46:24;50.80;;;19.60;;
66189;SDS011;52992;52.084;5.412;2022-12-10T07:48:53;58.20;;;19.70;;
66189;SDS011;52992;52.084;5.412;2022-12-10T07:51:20;58.13;;;20.10;;
66189;SDS011;52992;52.084;5.412;2022-12-10T07:53:50;57.40;;;21.47;;
66189;SDS011;52992;52.084;5.412;2022-12-10T07:56:19;58.57;;;20.43;;
66189;SDS011;52992;52.084;5.412;2022-12-10T07:58:47;63.87;;;20.97;;
66189;SDS011;52992;52.084;5.412;2022-12-10T08:01:15;68.57;;;21.60;;
66189;SDS011;52992;52.084;5.412;2022-12-10T08:03:44;66.93;;;21.87;;
66189;SDS011;52992;52.084;5.412;2022-12-10T08:06:12;59.80;;;20.10;;
66189;SDS011;52992;52.084;5.412;2022-12-10T08:08:41;56.90;;;20.63;;
66189;SDS011;52992;52.084;5.412;2022-12-10T08:11:09;55.17;;;20.50;;
66189;SDS011;52992;52.084;5.412;2022-12-10T08:13:37;59.90;;;20.50;;
66189;SDS011;52992;52.084;5.412;2022-12-10T08:16:09;54.20;;;18.30;;
66189;SDS011;52992;52.084;5.412;2022-12-10T08:18:41;62.40;;;19.13;;
66189;SDS011;52992;52.084;5.412;2022-12-10T08:21:10;58.73;;;20.43;;
66189;SDS011;52992;52.084;5.412;2022-12-10T08:23:42;52.77;;;19.37;;
66189;SDS011;52992;52.084;5.412;2022-12-10T08:26:11;58.03;;;20.80;;
66189;SDS011;52992;52.084;5.412;2022-12-10T08:28:42;58.53;;;20.43;;
66189;SDS011;52992;52.084;5.412;2022-12-10T08:31:10;62.10;;;20.00;;
66189;SDS011;52992;52.084;5.412;2022-12-10T08:33:38;62.70;;;18.93;;
66189;SDS011;52992;52.084;5.412;2022-12-10T08:36:06;59.47;;;19.57;;
66189;SDS011;52992;52.084;5.412;2022-12-10T08:38:37;59.07;;;20.27;;
66189;SDS011;52992;52.084;5.412;2022-12-10T08:41:14;55.83;;;19.77;;
66189;SDS011;52992;52.084;5.412;2022-12-10T08:43:46;57.63;;;20.23;;
66189;SDS011;52992;52.084;5.412;2022-12-10T08:46:14;54.17;;;18.53;;
66189;SDS011;52992;52.084;5.412;2022-12-10T08:48:41;51.73;;;18.67;;
66189;SDS011;52992;52.084;5.412;2022-12-10T08:51:10;52.43;;;18.83;;
66189;SDS011;52992;52.084;5.412;2022-12-10T08:53:39;56.20;;;18.50;;
66189;SDS011;52992;52.084;5.412;2022-12-10T08:56:06;56.17;;;19.20;;
66189;SDS011;52992;52.084;5.412;2022-12-10T08:58:33;53.20;;;19.10;;
66189;SDS011;52992;52.084;5.412;2022-12-10T09:01:05;49.60;;;18.53;;
66189;SDS011;52992;52.084;5.412;2022-12-10T09:03:36;46.00;;;16.00;;
66189;SDS011;52992;52.084;5.412;2022-12-10T09:06:08;53.80;;;17.37;;
66189;SDS011;52992;52.084;5.412;2022-12-10T09:08:36;50.07;;;16.90;;
66189;SDS011;52992;52.084;5.412;2022-12-10T09:11:07;56.30;;;19.00;;
66189;SDS011;52992;52.084;5.412;2022-12-10T09:13:36;55.13;;;18.37;;
66189;SDS011;52992;52.084;5.412;2022-12-10T09:16:03;58.07;;;21.07;;
66189;SDS011;52992;52.084;5.412;2022-12-10T09:18:31;58.30;;;20.20;;
66189;SDS011;52992;52.084;5.412;2022-12-10T09:20:58;61.63;;;19.27;;
66189;SDS011;52992;52.084;5.412;2022-12-10T09:23:25;59.40;;;17.97;;
66189;SDS011;52992;52.084;5.412;2022-12-10T09:25:52;58.30;;;18.20;;
66189;SDS011;52992;52.084;5.412;2022-12-10T09:28:18;70.57;;;20.23;;
66189;SDS011;52992;52.084;5.412;2022-12-10T09:30:45;68.53;;;19.80;;
66189;SDS011;52992;52.084;5.412;2022-12-10T09:33:20;47.00;;;18.00;;
66189;SDS011;52992;52.084;5.412;2022-12-10T09:35:47;61.67;;;19.10;;
66189;SDS011;52992;52.084;5.412;2022-12-10T09:38:14;62.93;;;20.27;;
66189;SDS011;52992;52.084;5.412;2022-12-10T09:40:45;68.50;;;20.80;;
66189;SDS011;52992;52.084;5.412;2022-12-10T09:43:24;64.53;;;19.57;;
66189;SDS011;52992;52.084;5.412;2022-12-10T09:45:56;73.93;;;19.77;;
66189;SDS011;52992;52.084;5.412;2022-12-10T09:51:21;66.53;;;18.53;;
66189;SDS011;52992;52.084;5.412;2022-12-10T09:53:51;64.07;;;19.93;;
66189;SDS011;52992;52.084;5.412;2022-12-10T09:56:29;54.90;;;19.63;;
66189;SDS011;52992;52.084;5.412;2022-12-10T09:58:59;66.47;;;19.43;;
66189;SDS011;52992;52.084;5.412;2022-12-10T10:01:30;52.50;;;17.73;;
66189;SDS011;52992;52.084;5.412;2022-12-10T10:04:02;57.17;;;18.27;;
66189;SDS011;52992;52.084;5.412;2022-12-10T10:06:29;56.90;;;19.00;;
66189;SDS011;52992;52.084;5.412;2022-12-10T10:08:57;58.20;;;17.67;;
66189;SDS011;52992;52.084;5.412;2022-12-10T10:11:31;58.47;;;19.23;;
66189;SDS011;52992;52.084;5.412;2022-12-10T10:14:10;60.37;;;17.90;;
66189;SDS011;52992;52.084;5.412;2022-12-10T10:16:45;60.27;;;20.33;;
66189;SDS011;52992;52.084;5.412;2022-12-10T10:19:29;57.50;;;19.83;;
66189;SDS011;52992;52.084;5.412;2022-12-10T10:21:59;61.40;;;18.63;;
66189;SDS011;52992;52.084;5.412;2022-12-10T10:24:40;56.03;;;17.77;;
66189;SDS011;52992;52.084;5.412;2022-12-10T10:29:52;55.93;;;18.60;;
66189;SDS011;52992;52.084;5.412;2022-12-10T10:32:28;51.20;;;18.20;;
66189;SDS011;52992;52.084;5.412;2022-12-10T10:35:21;55.53;;;18.20;;
66189;SDS011;52992;52.084;5.412;2022-12-10T10:37:57;69.40;;;18.20;;
66189;SDS011;52992;52.084;5.412;2022-12-10T10:40:34;62.67;;;18.17;;
66189;SDS011;52992;52.084;5.412;2022-12-10T10:43:08;54.70;;;18.40;;
66189;SDS011;52992;52.084;5.412;2022-12-10T10:46:04;51.17;;;17.57;;
66189;SDS011;52992;52.084;5.412;2022-12-10T10:48:43;56.20;;;18.30;;
66189;SDS011;52992;52.084;5.412;2022-12-10T10:56:06;67.80;;;20.50;;
66189;SDS011;52992;52.084;5.412;2022-12-10T10:58:34;58.07;;;19.03;;
66189;SDS011;52992;52.084;5.412;2022-12-10T11:03:30;53.40;;;18.03;;
66189;SDS011;52992;52.084;5.412;2022-12-10T11:05:59;59.43;;;17.63;;
66189;SDS011;52992;52.084;5.412;2022-12-10T11:08:29;50.53;;;16.07;;
66189;SDS011;52992;52.084;5.412;2022-12-10T11:11:00;56.73;;;17.80;;
66189;SDS011;52992;52.084;5.412;2022-12-10T11:13:31;49.20;;;18.50;;
66189;SDS011;52992;52.084;5.412;2022-12-10T11:16:09;59.97;;;19.37;;
66189;SDS011;52992;52.084;5.412;2022-12-10T11:18:52;49.07;;;17.57;;
66189;SDS011;52992;52.084;5.412;2022-12-10T11:21:32;50.30;;;16.23;;
66189;SDS011;52992;52.084;5.412;2022-12-10T11:24:02;54.17;;;18.93;;
66189;SDS011;52992;52.084;5.412;2022-12-10T11:26:42;47.80;;;17.33;;
66189;SDS011;52992;52.084;5.412;2022-12-10T11:50:14;48.13;;;16.90;;
66189;SDS011;52992;52.084;5.412;2022-12-10T12:13:37;46.17;;;18.10;;
66189;SDS011;52992;52.084;5.412;2022-12-10T12:16:09;49.00;;;16.17;;
66189;SDS011;52992;52.084;5.412;2022-12-10T12:18:48;52.83;;;16.27;;
66189;SDS011;52992;52.084;5.412;2022-12-10T12:21:21;52.50;;;17.70;;
66189;SDS011;52992;52.084;5.412;2022-12-10T12:26:37;51.60;;;18.30;;
66189;SDS011;52992;52.084;5.412;2022-12-10T12:37:11;54.17;;;19.07;;
66189;SDS011;52992;52.084;5.412;2022-12-10T12:39:43;45.13;;;17.70;;
66189;SDS011;52992;52.084;5.412;2022-12-10T12:42:17;46.60;;;15.80;;
66189;SDS011;52992;52.084;5.412;2022-12-10T12:45:10;45.77;;;16.33;;
66189;SDS011;52992;52.084;5.412;2022-12-10T12:47:47;52.43;;;16.50;;
66189;SDS011;52992;52.084;5.412;2022-12-10T12:53:24;47.93;;;16.87;;
66189;SDS011;52992;52.084;5.412;2022-12-10T12:58:48;52.70;;;17.67;;
66189;SDS011;52992;52.084;5.412;2022-12-10T13:04:00;54.00;;;19.07;;
66189;SDS011;52992;52.084;5.412;2022-12-10T13:06:29;49.57;;;16.67;;
66189;SDS011;52992;52.084;5.412;2022-12-10T13:11:40;50.93;;;16.87;;
66189;SDS011;52992;52.084;5.412;2022-12-10T13:27:17;59.77;;;18.50;;
66189;SDS011;52992;52.084;5.412;2022-12-10T13:32:19;50.80;;;17.20;;
66189;SDS011;52992;52.084;5.412;2022-12-10T13:48:48;51.17;;;17.90;;
66189;SDS011;52992;52.084;5.412;2022-12-10T13:53:59;43.83;;;15.90;;
66189;SDS011;52992;52.084;5.412;2022-12-10T13:56:54;49.30;;;16.67;;
66189;SDS011;52992;52.084;5.412;2022-12-10T13:59:42;52.60;;;17.77;;
66189;SDS011;52992;52.084;5.412;2022-12-10T14:02:25;53.20;;;17.40;;
66189;SDS011;52992;52.084;5.412;2022-12-10T14:07:46;54.27;;;17.30;;
66189;SDS011;52992;52.084;5.412;2022-12-10T14:10:16;43.67;;;15.67;;
66189;SDS011;52992;52.084;5.412;2022-12-10T14:12:49;54.97;;;17.67;;
66189;SDS011;52992;52.084;5.412;2022-12-10T14:15:18;51.13;;;17.33;;
66189;SDS011;52992;52.084;5.412;2022-12-10T14:17:49;51.53;;;17.37;;
66189;SDS011;52992;52.084;5.412;2022-12-10T14:20:17;59.03;;;19.00;;
66189;SDS011;52992;52.084;5.412;2022-12-10T14:22:53;51.83;;;16.57;;
66189;SDS011;52992;52.084;5.412;2022-12-10T14:25:45;60.70;;;18.90;;
66189;SDS011;52992;52.084;5.412;2022-12-10T14:28:13;57.67;;;18.90;;
66189;SDS011;52992;52.084;5.412;2022-12-10T14:30:42;60.20;;;18.33;;
66189;SDS011;52992;52.084;5.412;2022-12-10T14:33:18;48.37;;;16.57;;
66189;SDS011;52992;52.084;5.412;2022-12-10T14:35:49;50.10;;;18.13;;
66189;SDS011;52992;52.084;5.412;2022-12-10T14:38:21;46.87;;;16.87;;
66189;SDS011;52992;52.084;5.412;2022-12-10T14:40:54;51.47;;;16.97;;
66189;SDS011;52992;52.084;5.412;2022-12-10T14:43:26;54.67;;;17.13;;
66189;SDS011;52992;52.084;5.412;2022-12-10T14:46:02;57.47;;;17.97;;
66189;SDS011;52992;52.084;5.412;2022-12-10T14:48:35;61.13;;;19.83;;
66189;SDS011;52992;52.084;5.412;2022-12-10T14:51:15;67.23;;;19.60;;
66189;SDS011;52992;52.084;5.412;2022-12-10T14:53:45;52.53;;;19.03;;
66189;SDS011;52992;52.084;5.412;2022-12-10T14:56:20;62.47;;;20.50;;
66189;SDS011;52992;52.084;5.412;2022-12-10T14:59:11;62.63;;;19.07;;
66189;SDS011;52992;52.084;5.412;2022-12-10T15:01:48;64.00;;;19.20;;
66189;SDS011;52992;52.084;5.412;2022-12-10T15:04:19;59.57;;;20.47;;
66189;SDS011;52992;52.084;5.412;2022-12-10T15:06:52;56.73;;;18.17;;
66189;SDS011;52992;52.084;5.412;2022-12-10T15:09:25;74.53;;;19.80;;
66189;SDS011;52992;52.084;5.412;2022-12-10T15:11:53;55.10;;;20.20;;
66189;SDS011;52992;52.084;5.412;2022-12-10T15:14:20;65.43;;;21.07;;
66189;SDS011;52992;52.084;5.412;2022-12-10T15:16:50;67.53;;;19.50;;
66189;SDS011;52992;52.084;5.412;2022-12-10T15:21:58;60.00;;;20.57;;
66189;SDS011;52992;52.084;5.412;2022-12-10T15:24:37;60.27;;;18.50;;
66189;SDS011;52992;52.084;5.412;2022-12-10T15:27:20;75.30;;;22.67;;
66189;SDS011;52992;52.084;5.412;2022-12-10T15:29:49;69.63;;;20.90;;
66189;SDS011;52992;52.084;5.412;2022-12-10T15:32:24;64.17;;;20.93;;
66189;SDS011;52992;52.084;5.412;2022-12-10T15:34:54;65.40;;;20.80;;
66189;SDS011;52992;52.084;5.412;2022-12-10T15:37:25;76.13;;;21.10;;
66189;SDS011;52992;52.084;5.412;2022-12-10T15:39:58;88.40;;;22.80;;
66189;SDS011;52992;52.084;5.412;2022-12-10T15:42:37;75.43;;;21.30;;
66189;SDS011;52992;52.084;5.412;2022-12-10T15:47:54;75.80;;;23.63;;
66189;SDS011;52992;52.084;5.412;2022-12-10T15:50:25;77.53;;;22.37;;
66189;SDS011;52992;52.084;5.412;2022-12-10T15:52:52;67.33;;;19.70;;
66189;SDS011;52992;52.084;5.412;2022-12-10T15:55:19;69.73;;;21.07;;
66189;SDS011;52992;52.084;5.412;2022-12-10T15:57:46;56.70;;;19.27;;
66189;SDS011;52992;52.084;5.412;2022-12-10T16:00:25;55.37;;;17.73;;
66189;SDS011;52992;52.084;5.412;2022-12-10T16:02:54;65.07;;;18.97;;
66189;SDS011;52992;52.084;5.412;2022-12-10T16:05:26;59.33;;;18.83;;
66189;SDS011;52992;52.084;5.412;2022-12-10T16:07:59;57.57;;;19.10;;
66189;SDS011;52992;52.084;5.412;2022-12-10T16:10:32;56.17;;;19.47;;
66189;SDS011;52992;52.084;5.412;2022-12-10T16:15:31;72.13;;;19.93;;
66189;SDS011;52992;52.084;5.412;2022-12-10T16:18:05;65.33;;;19.80;;
66189;SDS011;52992;52.084;5.412;2022-12-10T16:20:35;65.43;;;19.70;;
66189;SDS011;52992;52.084;5.412;2022-12-10T16:23:01;85.40;;;27.80;;
66189;SDS011;52992;52.084;5.412;2022-12-10T16:25:29;64.23;;;23.03;;
66189;SDS011;52992;52.084;5.412;2022-12-10T16:27:56;63.17;;;20.10;;
66189;SDS011;52992;52.084;5.412;2022-12-10T16:30:26;63.60;;;20.80;;
66189;SDS011;52992;52.084;5.412;2022-12-10T16:33:02;55.07;;;17.73;;
66189;SDS011;52992;52.084;5.412;2022-12-10T16:35:30;53.57;;;18.30;;
66189;SDS011;52992;52.084;5.412;2022-12-10T16:37:57;57.77;;;18.00;;
66189;SDS011;52992;52.084;5.412;2022-12-10T16:40:25;56.60;;;17.67;;
66189;SDS011;52992;52.084;5.412;2022-12-10T16:42:54;64.97;;;19.27;;
66189;SDS011;52992;52.084;5.412;2022-12-10T16:47:51;60.40;;;20.23;;
66189;SDS011;52992;52.084;5.412;2022-12-10T16:50:19;64.00;;;19.97;;
66189;SDS011;52992;52.084;5.412;2022-12-10T16:52:46;59.23;;;19.93;;
66189;SDS011;52992;52.084;5.412;2022-12-10T16:55:15;75.33;;;21.43;;
66189;SDS011;52992;52.084;5.412;2022-12-10T16:57:44;75.23;;;19.67;;
66189;SDS011;52992;52.084;5.412;2022-12-10T17:00:15;66.60;;;21.20;;
66189;SDS011;52992;52.084;5.412;2022-12-10T17:02:46;69.23;;;22.93;;
66189;SDS011;52992;52.084;5.412;2022-12-10T17:07:55;66.33;;;21.83;;
66189;SDS011;52992;52.084;5.412;2022-12-10T17:10:22;77.43;;;24.37;;